CheckWX is a tool to help pilots better visualize weather data.  It is not intended as a substitute for an official pre-flight weather briefing.

02:10:10 UTC

SBCJ TAF
Carajás Airport
Carajás, Brazil
TAF SBCJ 222200Z 2300/2312 03004KT 9999 SCT015 TN20/2306Z TX24/2311Z PROB40 2303/2306 4000 BR BKN005 PROB40 2311/2312 BKN006 RMK PEU

Apr-23@
00:00 UTC

Apr-23 @ 00:00 UTC

Apr-23@
12:00 UTC

Apr-23 @ 12:00 UTC

TAF SBCJ 222200Z 2300/2312 03004KT 9999 SCT015 TN20/2306Z TX24/2311Z
Wind
  • 030° at 4 KTS
Cloud Levels
  • Scattered at 1,500' AGL

Apr-23@
03:00 UTC

Apr-23 @ 03:00 UTC

Apr-23@
06:00 UTC

Apr-23 @ 06:00 UTC

PROB40 2303/2306 4000 BR BKN005

Probable - 40% Likelihood

Probable - 40% Likelihood during this time.

Conditions
Mist
Cloud Levels
  • Broken at 500' AGL

Apr-23@
11:00 UTC

Apr-23 @ 11:00 UTC

Apr-23@
12:00 UTC

Apr-23 @ 12:00 UTC

PROB40 2311/2312 BKN006 RMK PEU

Probable - 40% Likelihood

Probable - 40% Likelihood during this time.

Cloud Levels
  • Broken at 600' AGL